Time;durP1;ratioP1;P1;durP2;ratioP2;P2;SDS_P1;SDS_P2;PMS_P1;PMS_P2;Temp;Humidity;BMP_temperature;BMP_pressure;BME280_temperature;BME280_humidity;BME280_pressure;Samples;Min_cycle;Max_cycle;Signal;HPM_P1;HPM_P2
2023/02/20 00:00:40;;;;;;;4.13;1.67;;;;;;;0.52;100.00;101334.84;5032795;28;20068;-81
2023/02/20 00:03:07;;;;;;;3.03;1.80;;;;;;;0.53;100.00;101334.00;5044072;28;20044;-81
2023/02/20 00:05:34;;;;;;;3.17;1.73;;;;;;;0.58;100.00;101334.13;5053206;28;20086;-81
2023/02/20 00:08:01;;;;;;;3.23;2.03;;;;;;;0.77;100.00;101325.19;5052518;28;20036;-81
2023/02/20 00:10:28;;;;;;;3.67;2.00;;;;;;;0.74;100.00;101327.66;5036061;28;20383;-81
2023/02/20 00:12:54;;;;;;;5.30;2.30;;;;;;;0.69;100.00;101322.34;5052519;28;20036;-81
2023/02/20 00:15:21;;;;;;;4.13;2.07;;;;;;;0.82;100.00;101328.78;5032724;28;20098;-81
2023/02/20 00:17:48;;;;;;;4.30;2.50;;;;;;;0.76;100.00;101310.41;5051705;28;20090;-81
2023/02/20 00:20:18;;;;;;;4.53;2.13;;;;;;;0.75;100.00;101306.91;5055246;28;20033;-81
2023/02/20 00:22:45;;;;;;;5.23;2.10;;;;;;;0.76;100.00;101313.03;5053066;28;20045;-81
2023/02/20 00:25:14;;;;;;;4.40;2.53;;;;;;;0.79;100.00;101308.78;5068602;28;20052;-81
2023/02/20 00:27:41;;;;;;;4.80;3.00;;;;;;;0.68;100.00;101306.72;5035747;28;20051;-81
2023/02/20 00:30:20;;;;;;;3.93;2.53;;;;;;;0.89;100.00;101312.53;5038834;28;20064;-82
2023/02/20 00:32:49;;;;;;;4.30;2.10;;;;;;;0.77;100.00;101304.38;5045167;28;20497;-81
2023/02/20 00:35:16;;;;;;;7.07;2.50;;;;;;;0.80;100.00;101304.44;5052893;28;20048;-82
2023/02/20 00:37:44;;;;;;;5.73;2.40;;;;;;;0.72;100.00;101300.75;5034409;28;20040;-82
2023/02/20 00:40:12;;;;;;;3.90;2.37;;;;;;;0.76;100.00;101300.00;5031596;28;20044;-80
2023/02/20 00:42:38;;;;;;;5.97;2.53;;;;;;;0.86;100.00;101288.16;5049349;28;20507;-81
2023/02/20 00:45:06;;;;;;;3.97;2.43;;;;;;;0.91;100.00;101270.94;5017208;28;20413;-81
2023/02/20 00:47:33;;;;;;;6.20;2.87;;;;;;;0.84;100.00;101264.69;5016586;28;20041;-81
2023/02/20 00:49:59;;;;;;;6.07;2.90;;;;;;;0.88;100.00;101266.53;5057518;28;20053;-81
2023/02/20 00:52:26;;;;;;;5.90;2.73;;;;;;;0.88;100.00;101271.75;5035911;28;20044;-82
2023/02/20 00:54:53;;;;;;;5.03;2.43;;;;;;;0.91;100.00;101274.41;5052565;28;20440;-82
2023/02/20 00:57:19;;;;;;;6.90;2.93;;;;;;;0.90;100.00;101276.97;5024617;28;20054;-82
2023/02/20 00:59:46;;;;;;;5.23;2.93;;;;;;;0.89;100.00;101268.31;5051820;28;20040;-79
2023/02/20 01:02:13;;;;;;;7.00;3.50;;;;;;;0.90;100.00;101249.25;5054436;28;20074;-80
2023/02/20 01:04:45;;;;;;;5.30;2.77;;;;;;;0.94;100.00;101250.22;5043047;28;20064;-80
2023/02/20 01:07:12;;;;;;;6.10;3.20;;;;;;;0.86;100.00;101252.63;5040706;28;20108;-80
2023/02/20 01:09:38;;;;;;;4.33;2.60;;;;;;;0.84;100.00;101251.66;5045169;28;20036;-80
2023/02/20 01:12:05;;;;;;;6.83;3.40;;;;;;;0.81;100.00;101249.00;5045660;28;20194;-80
2023/02/20 01:14:32;;;;;;;6.00;3.20;;;;;;;0.93;100.00;101245.88;5041290;28;20566;-79
2023/02/20 01:16:59;;;;;;;5.60;3.07;;;;;;;0.90;100.00;101249.25;5043016;28;20041;-81
2023/02/20 01:19:27;;;;;;;6.23;3.10;;;;;;;0.94;100.00;101243.31;5062396;28;20045;-80
2023/02/20 01:21:53;;;;;;;5.03;2.87;;;;;;;1.03;100.00;101229.66;5046988;28;20332;-80
2023/02/20 01:24:20;;;;;;;7.20;3.17;;;;;;;1.00;100.00;101234.78;5047165;28;20048;-81
2023/02/20 01:26:48;;;;;;;4.90;3.17;;;;;;;1.02;100.00;101234.00;5062210;28;20036;-80
2023/02/20 01:29:16;;;;;;;7.53;4.23;;;;;;;0.98;100.00;101226.06;5063949;28;20635;-80
2023/02/20 01:31:50;;;;;;;8.23;3.03;;;;;;;0.98;100.00;101211.31;5061071;28;20059;-80
2023/02/20 01:34:18;;;;;;;5.60;3.25;;;;;;;1.23;100.00;101204.16;5081788;28;20040;-80
2023/02/20 01:36:49;;;;;;;5.97;2.90;;;;;;;1.23;100.00;101194.63;5064777;28;20044;-80
2023/02/20 01:39:18;;;;;;;7.07;3.13;;;;;;;1.22;100.00;101184.19;5065045;28;20041;-79
2023/02/20 01:41:49;;;;;;;5.53;3.10;;;;;;;1.34;100.00;101187.09;5063133;28;20036;-80
2023/02/20 01:44:19;;;;;;;9.87;3.83;;;;;;;1.25;100.00;101179.06;5048559;28;20052;-80
2023/02/20 01:46:50;;;;;;;7.47;4.27;;;;;;;1.23;100.00;101173.81;5068018;28;20036;-80
2023/02/20 01:49:22;;;;;;;7.20;3.43;;;;;;;1.34;100.00;101167.16;5046615;28;20045;-80
2023/02/20 01:51:58;;;;;;;7.60;3.90;;;;;;;1.45;100.00;101169.16;5097470;28;20507;-80
2023/02/20 01:54:25;;;;;;;6.50;3.77;;;;;;;1.37;100.00;101164.63;5063488;28;20045;-79
2023/02/20 01:56:52;;;;;;;7.53;3.47;;;;;;;1.44;100.00;101162.19;5036127;23;20052;-81
2023/02/20 01:59:40;;;;;;;5.73;3.30;;;;;;;1.50;100.00;101176.22;5006058;28;20060;-80
2023/02/20 02:02:07;;;;;;;6.07;3.50;;;;;;;1.55;100.00;101171.13;5020321;28;20037;-79
2023/02/20 02:04:35;;;;;;;12.10;4.43;;;;;;;1.46;100.00;101176.13;5033284;28;20459;-81
2023/02/20 02:07:07;;;;;;;6.15;3.38;;;;;;;1.50;100.00;101173.63;4999511;28;20038;-81
2023/02/20 02:09:47;;;;;;;8.97;4.80;;;;;;;1.66;100.00;101156.63;5025502;28;20050;-80
2023/02/20 02:12:14;;;;;;;7.93;3.90;;;;;;;1.51;100.00;101157.16;5024269;28;20096;-80
2023/02/20 02:14:40;;;;;;;7.47;3.80;;;;;;;1.54;100.00;101146.81;5004134;28;20056;-80
2023/02/20 02:17:19;;;;;;;8.63;4.23;;;;;;;1.47;100.00;101142.31;5016619;28;20045;-79
2023/02/20 02:19:49;;;;;;;6.90;3.73;;;;;;;1.52;100.00;101143.31;5018255;28;20050;-81
2023/02/20 02:22:45;;;;;;;7.40;4.50;;;;;;;1.56;100.00;101134.72;5038159;28;20037;-81
2023/02/20 02:25:22;;;;;;;8.97;3.97;;;;;;;1.57;100.00;101119.97;4984543;28;20512;-80
2023/02/20 02:28:15;;;;;;;5.70;3.30;;;;;;;1.57;100.00;101126.06;5036151;28;20095;-79
2023/02/20 02:30:45;;;;;;;7.67;3.70;;;;;;;1.55;100.00;101114.72;5003423;28;20134;-79
2023/02/20 02:33:33;;;;;;;8.03;3.80;;;;;;;1.66;100.00;101114.97;5041496;28;20112;-79
2023/02/20 02:36:37;;;;;;;6.60;3.70;;;;;;;1.69;100.00;101115.06;5034546;28;20068;-79
2023/02/20 02:39:15;;;;;;;6.05;3.50;;;;;;;1.76;100.00;101109.13;5038414;28;20045;-81
2023/02/20 02:42:13;;;;;;;9.37;4.07;;;;;;;1.73;100.00;101092.56;5036530;28;20128;-82
2023/02/20 02:44:55;;;;;;;7.93;4.23;;;;;;;1.78;100.00;101090.94;5019409;28;20041;-79
2023/02/20 02:47:29;;;;;;;6.57;4.13;;;;;;;1.76;100.00;101087.41;5050736;28;20038;-78
2023/02/20 02:49:56;;;;;;;6.17;4.03;;;;;;;1.85;100.00;101083.28;5000353;28;20064;-81
2023/02/20 02:55:09;;;;;;;9.83;5.00;;;;;;;1.99;100.00;101062.72;5035692;28;20076;-81
2023/02/20 02:57:36;;;;;;;9.60;4.57;;;;;;;1.91;100.00;101065.16;5002258;28;20052;-82
2023/02/20 03:00:13;;;;;;;12.10;5.27;;;;;;;2.09;100.00;101066.38;5017556;28;20075;-80
2023/02/20 03:02:49;;;;;;;10.50;5.83;;;;;;;2.09;100.00;101062.06;5022301;28;20068;-78
2023/02/20 03:05:19;;;;;;;9.37;4.70;;;;;;;2.13;100.00;101061.28;5018701;28;20088;-79
2023/02/20 03:07:52;;;;;;;11.47;5.47;;;;;;;2.16;100.00;101053.50;5016460;28;20041;-81
2023/02/20 03:10:30;;;;;;;9.43;5.78;;;;;;;2.22;100.00;101050.16;5033792;28;20038;-82
2023/02/20 03:13:03;;;;;;;8.23;5.23;;;;;;;2.30;100.00;101037.28;5021073;28;20100;-81
2023/02/20 03:15:35;;;;;;;8.83;4.67;;;;;;;2.26;100.00;101028.50;5039752;28;20395;-80
2023/02/20 03:18:09;;;;;;;11.63;5.40;;;;;;;2.30;100.00;101019.03;5016108;28;20091;-79
2023/02/20 03:20:42;;;;;;;10.70;5.15;;;;;;;2.36;100.00;101016.53;5013823;28;20387;-80
2023/02/20 03:23:11;;;;;;;8.93;5.83;;;;;;;2.42;100.00;101008.81;5020011;28;20046;-79
2023/02/20 03:25:45;;;;;;;10.93;5.33;;;;;;;2.44;100.00;101005.41;5008294;28;20038;-81
2023/02/20 03:28:17;;;;;;;10.27;5.83;;;;;;;2.53;100.00;100996.88;5049139;28;20095;-80
2023/02/20 03:31:07;;;;;;;11.53;5.93;;;;;;;2.56;100.00;100999.50;5027405;28;20074;-79
2023/02/20 03:45:03;;;;;;;12.83;6.10;;;;;;;2.75;100.00;101000.69;5005689;28;20046;-79
2023/02/20 03:47:30;;;;;;;9.73;5.83;;;;;;;2.66;100.00;100990.13;5015051;28;20042;-80
2023/02/20 03:52:51;;;;;;;11.77;5.80;;;;;;;2.77;100.00;100984.22;5033253;28;20049;-79
2023/02/20 03:55:18;;;;;;;9.77;6.03;;;;;;;2.79;100.00;100992.09;4985747;28;20041;-82
2023/02/20 03:57:49;;;;;;;13.07;6.47;;;;;;;2.74;100.00;100988.50;5036268;28;20123;-80
2023/02/20 04:00:20;;;;;;;12.50;6.17;;;;;;;2.74;100.00;100991.13;5019793;28;20037;-79
2023/02/20 04:02:53;;;;;;;12.27;5.60;;;;;;;2.72;100.00;100979.78;5026117;28;20056;-80
2023/02/20 04:05:25;;;;;;;12.03;6.43;;;;;;;2.79;100.00;100987.75;5005646;28;20049;-79
2023/02/20 04:08:04;;;;;;;11.90;7.47;;;;;;;2.85;100.00;100986.94;5020759;28;20080;-79
2023/02/20 04:10:36;;;;;;;11.90;5.83;;;;;;;2.89;100.00;100987.88;5019605;28;20459;-80
2023/02/20 04:13:04;;;;;;;13.27;7.10;;;;;;;2.94;100.00;100996.66;5022439;28;20047;-81
2023/02/20 04:15:35;;;;;;;12.57;7.07;;;;;;;2.82;100.00;100982.56;5037568;28;20465;-80
2023/02/20 04:18:07;;;;;;;12.50;6.23;;;;;;;2.81;100.00;100979.94;5021909;28;20037;-79
2023/02/20 04:20:33;;;;;;;14.50;8.33;;;;;;;2.90;100.00;100968.75;5020701;28;20052;-79
2023/02/20 04:23:08;;;;;;;11.47;6.43;;;;;;;2.97;100.00;100968.00;5015331;28;20041;-79
2023/02/20 04:25:41;;;;;;;13.47;7.97;;;;;;;2.97;100.00;100960.19;5018486;28;20056;-80
2023/02/20 04:28:08;;;;;;;12.63;7.63;;;;;;;2.91;100.00;100954.84;5005141;28;20041;-80
2023/02/20 04:30:35;;;;;;;13.90;6.90;;;;;;;2.97;100.00;100950.63;5034830;28;20045;-79
2023/02/20 04:33:04;;;;;;;12.60;6.47;;;;;;;3.00;100.00;100940.22;5020397;28;20073;-80
2023/02/20 04:35:31;;;;;;;11.93;7.30;;;;;;;3.02;100.00;100937.63;5005890;28;20107;-80
2023/02/20 04:37:58;;;;;;;14.27;7.17;;;;;;;3.10;100.00;100949.03;5012747;28;20042;-81
2023/02/20 04:40:27;;;;;;;14.40;7.40;;;;;;;2.99;100.00;100930.63;4994711;28;20815;-81
2023/02/20 04:42:53;;;;;;;14.50;7.67;;;;;;;3.08;100.00;100937.72;5040967;28;20060;-79
2023/02/20 04:45:20;;;;;;;16.10;7.07;;;;;;;3.10;100.00;100926.44;5039713;28;20111;-81
2023/02/20 04:47:47;;;;;;;13.10;7.57;;;;;;;3.17;100.00;100926.53;5017694;28;20132;-79
2023/02/20 04:50:27;;;;;;;15.13;7.97;;;;;;;3.14;100.00;100911.69;5036820;28;20500;-79
2023/02/20 04:52:53;;;;;;;12.33;6.83;;;;;;;3.22;100.00;100907.47;5019244;28;20049;-79
2023/02/20 04:55:20;;;;;;;14.77;7.50;;;;;;;3.31;100.00;100904.09;5037660;28;20462;-80
2023/02/20 04:57:47;;;;;;;14.47;7.70;;;;;;;3.31;100.00;100904.09;5015363;28;20033;-79
2023/02/20 05:00:20;;;;;;;12.40;7.20;;;;;;;3.23;100.00;100909.22;5032885;28;20042;-79
2023/02/20 05:02:48;;;;;;;15.67;8.13;;;;;;;3.32;100.00;100909.34;5020028;28;20050;-79
2023/02/20 05:05:21;;;;;;;13.20;7.67;;;;;;;3.30;100.00;100904.97;5003478;28;20095;-80
2023/02/20 05:07:53;;;;;;;17.80;8.80;;;;;;;3.29;100.00;100904.09;5020097;28;20092;-78
2023/02/20 05:10:21;;;;;;;15.23;7.93;;;;;;;3.41;100.00;100907.69;5006241;28;20060;-80
2023/02/20 05:12:48;;;;;;;14.83;7.90;;;;;;;3.38;100.00;100903.31;5003162;28;20053;-79
2023/02/20 05:15:15;;;;;;;13.03;7.57;;;;;;;3.38;100.00;100891.13;4996164;28;20088;-80
2023/02/20 05:17:41;;;;;;;17.57;8.80;;;;;;;3.42;100.00;100891.16;5023915;28;20033;-81
2023/02/20 05:20:09;;;;;;;16.70;8.20;;;;;;;3.50;100.00;100876.47;5004079;28;20061;-80
2023/02/20 05:22:35;;;;;;;15.00;8.90;;;;;;;3.43;100.00;100883.34;5004469;28;20038;-81
2023/02/20 05:25:02;;;;;;;14.63;7.57;;;;;;;3.41;100.00;100879.84;5038176;28;20045;-80
2023/02/20 05:27:29;;;;;;;15.23;8.17;;;;;;;3.47;100.00;100873.81;5038980;28;20614;-81
2023/02/20 05:29:57;;;;;;;13.80;8.83;;;;;;;3.46;100.00;100861.63;5022925;28;20490;-79
2023/02/20 05:32:28;;;;;;;15.93;8.07;;;;;;;3.47;100.00;100863.38;5039669;28;20033;-79
2023/02/20 05:34:55;;;;;;;15.07;8.73;;;;;;;3.50;100.00;100852.94;5037892;28;20048;-81
2023/02/20 05:37:23;;;;;;;15.53;9.13;;;;;;;3.51;100.00;100854.69;5017490;28;20107;-82
2023/02/20 05:39:50;;;;;;;14.47;8.23;;;;;;;3.56;100.00;100871.31;5033773;28;20040;-80
2023/02/20 05:42:17;;;;;;;17.53;9.03;;;;;;;3.53;100.00;100847.75;5003207;28;20038;-79
2023/02/20 05:44:44;;;;;;;16.37;8.47;;;;;;;3.49;100.00;100836.41;5006973;28;20494;-80
2023/02/20 05:47:10;;;;;;;15.20;8.57;;;;;;;3.52;100.00;100820.75;5021023;28;20057;-79
2023/02/20 05:49:37;;;;;;;16.73;8.77;;;;;;;3.52;100.00;100812.91;5018027;28;20052;-80
2023/02/20 05:52:10;;;;;;;18.20;9.93;;;;;;;3.57;100.00;100812.97;5001793;28;20045;-80
2023/02/20 05:54:38;;;;;;;14.60;8.13;;;;;;;3.60;100.00;100813.00;5013216;28;20099;-78
2023/02/20 05:57:04;;;;;;;16.77;9.03;;;;;;;3.58;100.00;100814.72;5019318;28;20050;-80
2023/02/20 05:59:31;;;;;;;15.77;8.27;;;;;;;3.57;100.00;100795.56;5016095;28;20041;-79
2023/02/20 06:01:59;;;;;;;17.57;9.93;;;;;;;3.54;100.00;100802.50;5034202;28;20493;-79
2023/02/20 06:04:26;;;;;;;17.93;9.20;;;;;;;3.57;100.00;100787.72;4999069;28;20062;-80
2023/02/20 06:06:53;;;;;;;18.37;9.40;;;;;;;3.57;100.00;100786.84;5023195;28;20072;-79
2023/02/20 06:09:20;;;;;;;16.93;9.47;;;;;;;3.62;100.00;100783.44;5034588;28;20041;-81
2023/02/20 06:11:49;;;;;;;18.43;9.27;;;;;;;3.62;100.00;100774.72;5019996;28;20045;-79
2023/02/20 06:14:17;;;;;;;19.83;9.53;;;;;;;3.67;100.00;100776.50;5017507;28;20122;-78
2023/02/20 06:16:44;;;;;;;19.00;9.20;;;;;;;3.61;100.00;100776.44;5002865;28;20048;-79
2023/02/20 06:19:16;;;;;;;16.07;8.30;;;;;;;3.64;100.00;100767.78;5017756;28;20053;-79
2023/02/20 06:21:44;;;;;;;19.73;10.47;;;;;;;3.65;100.00;100772.13;5053722;28;20042;-79
2023/02/20 06:24:11;;;;;;;18.97;10.53;;;;;;;3.65;100.00;100764.31;5035242;28;20660;-79
2023/02/20 06:26:40;;;;;;;17.03;9.40;;;;;;;3.66;100.00;100777.38;5034627;28;20045;-79
2023/02/20 06:29:07;;;;;;;16.37;9.63;;;;;;;3.77;100.00;100784.44;5034083;28;20053;-79
2023/02/20 06:31:33;;;;;;;17.13;9.13;;;;;;;3.71;100.00;100776.56;5032757;28;20033;-78
2023/02/20 06:34:00;;;;;;;19.03;10.70;;;;;;;3.75;100.00;100755.69;4996837;28;20100;-79
2023/02/20 06:36:29;;;;;;;18.13;9.70;;;;;;;3.83;100.00;100763.59;5011290;28;20572;-80
2023/02/20 06:38:58;;;;;;;17.13;9.03;;;;;;;3.79;100.00;100752.25;5001127;28;20051;-81
2023/02/20 06:41:25;;;;;;;22.03;10.57;;;;;;;3.75;100.00;100779.19;5031369;28;20087;-79
2023/02/20 06:43:52;;;;;;;18.97;9.83;;;;;;;3.83;100.00;100774.03;5034311;28;20479;-79
2023/02/20 06:46:21;;;;;;;19.30;10.40;;;;;;;3.77;100.00;100781.81;5031732;28;20041;-79
2023/02/20 06:48:54;;;;;;;19.10;10.00;;;;;;;3.84;100.00;100784.50;5041835;28;20084;-80
2023/02/20 06:51:31;;;;;;;23.63;11.87;;;;;;;3.89;100.00;100748.84;5017613;28;20048;-79
2023/02/20 06:53:58;;;;;;;18.67;9.87;;;;;;;3.90;100.00;100753.19;5034803;28;20049;-80
2023/02/20 06:56:28;;;;;;;21.37;10.67;;;;;;;3.82;100.00;100740.94;5035447;28;20068;-78
2023/02/20 06:58:55;;;;;;;16.63;9.23;;;;;;;3.94;100.00;100743.63;5020467;28;20048;-79
2023/02/20 07:01:25;;;;;;;18.97;10.27;;;;;;;3.98;100.00;100740.19;5034446;28;20391;-79
2023/02/20 07:03:54;;;;;;;18.17;9.93;;;;;;;3.92;100.00;100745.38;5002129;28;20564;-79
2023/02/20 07:06:22;;;;;;;19.80;9.43;;;;;;;3.94;100.00;100759.31;5018961;28;20045;-79
2023/02/20 07:08:49;;;;;;;16.37;9.33;;;;;;;3.92;100.00;100742.75;5034571;28;20046;-80
2023/02/20 07:11:20;;;;;;;16.40;9.10;;;;;;;4.02;100.00;100735.84;5037529;28;20033;-81
2023/02/20 07:13:47;;;;;;;14.77;9.00;;;;;;;4.00;100.00;100737.59;5035929;28;20041;-79
2023/02/20 07:16:13;;;;;;;18.47;9.87;;;;;;;4.07;100.00;100744.59;5018347;28;20068;-80
2023/02/20 07:18:41;;;;;;;17.17;9.93;;;;;;;4.13;100.00;100734.19;5015398;28;20069;-80
2023/02/20 07:21:08;;;;;;;18.07;9.17;;;;;;;4.17;100.00;100741.19;5034458;28;20099;-80
2023/02/20 07:23:35;;;;;;;17.67;8.97;;;;;;;4.14;100.00;100722.88;5002706;28;20051;-80
2023/02/20 07:26:01;;;;;;;18.87;9.70;;;;;;;4.10;100.00;100703.66;5035764;28;20065;-79
2023/02/20 07:28:28;;;;;;;17.27;9.77;;;;;;;4.12;100.00;100706.28;4989443;28;20042;-80
2023/02/20 07:30:55;;;;;;;16.57;8.10;;;;;;;4.17;100.00;100694.13;4982280;28;20117;-80
2023/02/20 07:33:22;;;;;;;17.70;9.07;;;;;;;4.16;100.00;100688.03;5014716;28;20498;-79
2023/02/20 07:35:48;;;;;;;19.93;10.17;;;;;;;4.35;100.00;100681.16;5032559;28;20041;-80
2023/02/20 07:38:15;;;;;;;16.17;8.23;;;;;;;4.37;100.00;100692.50;5020967;28;20095;-79
2023/02/20 07:40:42;;;;;;;17.63;8.67;;;;;;;4.39;100.00;100674.22;5036436;28;20057;-78
2023/02/20 07:43:08;;;;;;;16.70;9.87;;;;;;;4.34;100.00;100684.63;5037564;28;20709;-79
2023/02/20 07:45:36;;;;;;;17.17;9.03;;;;;;;4.37;100.00;100668.97;5020077;28;20506;-80
2023/02/20 07:48:03;;;;;;;15.60;8.33;;;;;;;4.49;100.00;100655.94;5003184;28;20438;-79
2023/02/20 07:50:29;;;;;;;15.40;9.20;;;;;;;4.47;100.00;100655.06;5020690;28;20081;-78
2023/02/20 07:52:56;;;;;;;17.03;9.43;;;;;;;4.57;100.00;100642.00;5019172;28;20041;-79
2023/02/20 07:55:23;;;;;;;15.97;9.07;;;;;;;4.61;100.00;100634.16;5020113;28;20639;-80
2023/02/20 07:57:53;;;;;;;17.03;8.80;;;;;;;4.60;100.00;100629.81;5077607;23;20128;-84
2023/02/20 08:00:20;;;;;;;16.43;8.57;;;;;;;4.62;100.00;100616.72;5006410;28;20037;-82
2023/02/20 08:02:47;;;;;;;19.30;10.47;;;;;;;4.68;100.00;100608.91;5003156;28;20033;-81
2023/02/20 08:05:14;;;;;;;17.53;9.80;;;;;;;4.71;100.00;100614.16;4996516;28;20048;-82
2023/02/20 08:07:45;;;;;;;16.23;9.07;;;;;;;4.70;100.00;100604.53;5012689;28;20144;-82
2023/02/20 08:10:13;;;;;;;17.43;10.53;;;;;;;4.76;100.00;100583.63;5010529;28;20430;-82
2023/02/20 08:12:40;;;;;;;17.83;10.43;;;;;;;4.75;100.00;100587.09;4977632;28;20034;-82
2023/02/20 08:15:10;;;;;;;16.67;10.10;;;;;;;4.82;100.00;100577.53;4977411;28;20038;-82
2023/02/20 08:17:40;;;;;;;17.30;10.07;;;;;;;4.84;100.00;100560.06;5012701;28;20077;-81
2023/02/20 08:20:14;;;;;;;18.83;10.47;;;;;;;4.89;100.00;100564.47;5021458;28;20045;-81
2023/02/20 08:22:40;;;;;;;16.70;9.20;;;;;;;4.91;100.00;100560.09;5022984;28;20119;-83
2023/02/20 08:25:07;;;;;;;17.70;10.10;;;;;;;4.94;100.00;100551.34;5033887;28;20041;-82
2023/02/20 08:27:37;;;;;;;18.73;10.47;;;;;;;4.95;100.00;100564.44;5013503;28;20049;-82
2023/02/20 08:30:05;;;;;;;18.13;10.17;;;;;;;4.95;100.00;100550.47;5001201;28;20068;-82
2023/02/20 08:32:31;;;;;;;16.73;9.73;;;;;;;4.98;100.00;100558.34;5006256;28;20452;-82
2023/02/20 08:34:58;;;;;;;18.13;9.83;;;;;;;5.07;100.00;100540.91;4993290;28;20137;-82
2023/02/20 08:37:25;;;;;;;18.63;9.93;;;;;;;5.09;100.00;100552.25;4996758;28;20048;-81
2023/02/20 08:39:51;;;;;;;19.13;10.37;;;;;;;5.11;100.00;100533.03;4997449;28;20050;-83
2023/02/20 08:42:18;;;;;;;15.93;9.47;;;;;;;5.14;100.00;100538.28;4981326;28;20050;-82
2023/02/20 08:44:45;;;;;;;20.50;11.47;;;;;;;5.17;100.00;100533.03;5018502;28;20100;-85
2023/02/20 08:47:11;;;;;;;17.80;9.50;;;;;;;5.22;100.00;100531.31;5012888;28;20045;-81
2023/02/20 08:49:38;;;;;;;16.90;9.07;;;;;;;5.28;100.00;100520.78;4999255;28;20041;-80
2023/02/20 08:52:07;;;;;;;17.77;10.17;;;;;;;5.31;100.00;100505.97;5012189;28;20414;-81
2023/02/20 08:54:34;;;;;;;18.33;11.07;;;;;;;5.36;100.00;100503.31;5005045;28;20449;-82
2023/02/20 08:57:01;;;;;;;18.57;9.77;;;;;;;5.41;100.00;100485.84;5016648;28;20576;-81
2023/02/20 08:59:30;;;;;;;15.97;9.03;;;;;;;5.45;100.00;100484.97;5000066;28;20050;-81
2023/02/20 09:01:57;;;;;;;16.57;9.77;;;;;;;5.47;100.00;100466.63;5016385;28;20045;-80
2023/02/20 09:04:23;;;;;;;18.47;9.90;;;;;;;5.55;100.00;100470.97;5001237;28;20048;-79
2023/02/20 09:06:50;;;;;;;22.90;10.23;;;;;;;5.59;100.00;100470.06;5000393;28;20041;-78
2023/02/20 09:09:16;;;;;;;18.10;9.83;;;;;;;5.71;100.00;100466.53;4992603;28;20513;-79
2023/02/20 09:11:43;;;;;;;16.60;9.50;;;;;;;5.81;100.00;100470.00;5022279;28;20033;-79
2023/02/20 09:14:10;;;;;;;20.23;10.70;;;;;;;5.87;100.00;100475.22;5034726;28;20041;-79
2023/02/20 09:16:40;;;;;;;19.27;10.00;;;;;;;5.90;100.00;100478.75;5015548;28;20041;-78
2023/02/20 09:19:08;;;;;;;18.27;9.90;;;;;;;6.07;100.00;100478.66;5052462;28;20495;-80
2023/02/20 09:21:35;;;;;;;15.57;9.83;;;;;;;6.16;100.00;100469.88;5023600;28;20045;-80
2023/02/20 09:24:04;;;;;;;17.87;9.87;;;;;;;6.26;100.00;100483.81;5016463;28;20514;-80
2023/02/20 09:26:31;;;;;;;16.93;9.87;;;;;;;6.35;100.00;100474.13;5033281;28;20042;-79
2023/02/20 09:28:57;;;;;;;16.33;10.00;;;;;;;6.44;100.00;100460.06;5012050;28;20037;-80
2023/02/20 09:31:24;;;;;;;13.87;8.63;;;;;;;6.55;100.00;100449.47;5012697;28;20080;-80
2023/02/20 09:33:51;;;;;;;15.97;10.00;;;;;;;6.55;100.00;100450.34;4996763;28;20097;-79
2023/02/20 09:36:17;;;;;;;13.57;8.83;;;;;;;6.55;100.00;100445.09;5011725;28;20042;-79
2023/02/20 09:38:44;;;;;;;15.93;8.63;;;;;;;6.58;100.00;100433.72;5014003;28;20042;-80
2023/02/20 09:41:43;;;;;;;16.57;8.90;;;;;;;6.61;100.00;100444.19;5021499;28;20068;-80
2023/02/20 09:44:51;;;;;;;16.60;10.30;;;;;;;6.62;100.00;100428.44;5017770;28;20046;-80
2023/02/20 09:47:48;;;;;;;17.40;11.20;;;;;;;6.73;100.00;100428.38;5014177;28;20570;-80
2023/02/20 09:50:29;;;;;;;27.63;15.50;;;;;;;6.75;100.00;100418.72;5033272;28;20045;-80
2023/02/20 09:53:24;;;;;;;14.87;10.10;;;;;;;6.75;100.00;100406.47;4996965;28;20041;-80
2023/02/20 09:55:51;;;;;;;15.23;8.37;;;;;;;6.81;100.00;100417.75;5032261;28;20040;-80
2023/02/20 09:58:40;;;;;;;15.37;8.23;;;;;;;6.91;100.00;100404.56;5017855;28;20406;-80
2023/02/20 10:01:07;;;;;;;13.10;7.33;;;;;;;6.93;100.00;100399.28;5001190;28;20103;-81
2023/02/20 10:03:41;;;;;;;12.90;7.23;;;;;;;7.01;100.00;100405.34;5030112;28;20052;-79
2023/02/20 10:06:19;;;;;;;12.77;7.57;;;;;;;7.05;100.00;100386.88;4996514;28;20060;-80
2023/02/20 10:08:50;;;;;;;15.97;7.63;;;;;;;7.20;100.00;100393.75;5008541;28;20045;-81
2023/02/20 10:12:15;;;;;;;12.33;7.73;;;;;;;7.24;100.00;100394.59;5033007;28;20042;-80
2023/02/20 10:14:58;;;;;;;15.18;6.90;;;;;;;7.32;100.00;100392.75;4971804;28;20055;-80
2023/02/20 10:17:34;;;;;;;10.43;7.27;;;;;;;7.28;100.00;100394.53;4994453;28;20688;-81
2023/02/20 10:20:15;;;;;;;14.97;8.03;;;;;;;7.34;100.00;100373.44;5031139;28;20088;-81
2023/02/20 10:23:07;;;;;;;12.97;7.83;;;;;;;7.41;100.00;100381.25;5014820;28;20447;-82
2023/02/20 10:25:38;;;;;;;12.77;7.93;;;;;;;7.48;100.00;100357.50;5014631;28;20399;-82
2023/02/20 10:28:10;;;;;;;13.23;8.30;;;;;;;7.52;100.00;100359.19;5014917;28;20128;-81
2023/02/20 10:30:56;;;;;;;12.20;8.20;;;;;;;7.61;100.00;100347.69;5002677;28;20061;-82
2023/02/20 10:33:30;;;;;;;13.63;7.57;;;;;;;7.66;100.00;100348.50;5031419;28;20052;-81
2023/02/20 10:36:02;;;;;;;11.87;7.97;;;;;;;7.74;100.00;100370.31;5013657;28;20041;-81
2023/02/20 10:38:53;;;;;;;12.73;7.50;;;;;;;7.73;100.00;100347.50;5032724;28;20045;-81
2023/02/20 10:41:28;;;;;;;11.07;7.33;;;;;;;7.75;100.00;100345.75;5019645;28;20046;-81
2023/02/20 10:44:00;;;;;;;12.13;7.70;;;;;;;7.74;100.00;100348.41;4978661;28;20046;-82
2023/02/20 10:46:43;;;;;;;11.97;7.77;;;;;;;7.69;100.00;100360.75;4978830;28;20042;-81
2023/02/20 10:49:19;;;;;;;11.50;7.23;;;;;;;7.66;100.00;100366.91;4996014;28;20052;-81
2023/02/20 10:51:49;;;;;;;12.43;6.83;;;;;;;7.65;100.00;100370.44;5009486;28;20060;-82
2023/02/20 10:54:32;;;;;;;12.17;7.57;;;;;;;7.66;100.00;100379.19;5030654;28;20289;-81
2023/02/20 10:57:07;;;;;;;12.07;7.57;;;;;;;7.64;100.00;100360.78;5027889;28;20045;-81
2023/02/20 10:59:43;;;;;;;13.93;9.07;;;;;;;7.68;100.00;100359.00;5009203;28;20080;-81
2023/02/20 11:02:17;;;;;;;11.27;7.40;;;;;;;7.71;100.00;100374.72;5013846;28;20045;-81
2023/02/20 11:04:50;;;;;;;14.57;8.33;;;;;;;7.67;100.00;100363.41;5005704;28;20657;-81
2023/02/20 11:07:18;;;;;;;16.77;8.93;;;;;;;7.70;100.00;100367.72;5025732;28;20041;-81
2023/02/20 11:09:45;;;;;;;14.37;8.60;;;;;;;7.69;100.00;100380.00;4997459;28;20041;-81
2023/02/20 11:12:23;;;;;;;14.33;9.03;;;;;;;7.67;100.00;100357.25;5029981;28;20037;-82
2023/02/20 11:14:51;;;;;;;13.87;9.03;;;;;;;7.66;100.00;100371.31;5010291;28;20056;-82
2023/02/20 11:17:25;;;;;;;13.03;8.87;;;;;;;7.64;100.00;100366.03;4993727;28;20038;-80
2023/02/20 11:19:53;;;;;;;13.52;8.07;;;;;;;7.66;100.00;100364.28;4994624;28;20052;-82
2023/02/20 11:22:39;;;;;;;14.97;8.97;;;;;;;7.68;100.00;100359.88;5017862;28;20461;-80
2023/02/20 11:25:18;;;;;;;15.57;9.07;;;;;;;7.66;100.00;100348.50;5011218;28;20096;-80
2023/02/20 11:27:48;;;;;;;15.57;9.23;;;;;;;7.65;100.00;100354.66;5012187;28;20048;-80
2023/02/20 11:30:27;;;;;;;14.03;9.00;;;;;;;7.71;100.00;100362.44;5022337;28;20048;-80
2023/02/20 11:33:03;;;;;;;13.80;8.83;;;;;;;7.71;100.00;100341.41;5005622;28;20038;-80
2023/02/20 11:35:33;;;;;;;15.10;10.40;;;;;;;7.70;100.00;100351.94;5008027;28;20037;-80
2023/02/20 11:38:21;;;;;;;11.93;8.83;;;;;;;7.69;100.00;100344.97;5018520;28;20045;-80
2023/02/20 11:41:00;;;;;;;13.77;9.23;;;;;;;7.71;100.00;100344.03;5012802;28;20071;-80
2023/02/20 11:43:33;;;;;;;14.97;9.17;;;;;;;7.71;100.00;100349.31;5017843;28;20037;-80
2023/02/20 11:46:20;;;;;;;14.50;9.37;;;;;;;7.73;100.00;100349.28;5015365;28;20095;-80
2023/02/20 11:48:53;;;;;;;17.07;10.80;;;;;;;7.76;100.00;100349.25;5009747;28;20079;-81
2023/02/20 11:51:41;;;;;;;16.67;10.43;;;;;;;7.78;100.00;100347.47;5031959;28;20047;-80
2023/02/20 11:54:23;;;;;;;13.17;9.47;;;;;;;7.76;100.00;100347.50;5028512;28;20055;-81